Aérodrome :
LOGIN :

S'inscrire | Disclaimer

   EN    FR    IT 

 










Légende :    VFR   VFR Marginal   IFR   IFR Intensif   IFR Très Intensif
Visi : 
Plafond : 
>= 8 km
>= 3000ft
5 à 8 km
1000 à 3000 ft
1500m à 5 km
500 à 1000 ft
800 à 1500m
200 à 500 ft
< 800m
< 200 ft
Symboles :   Orages  Brouillard  Fortes neiges  Fortes précipitations  Vent > 20 kt
SIGMETs :   Divers  Orages  Givrage  Turbulence  Onde Orograph.  Cendres Volcan.







- Altitude de l'aérodrome : 162 ft
- Code IATA : BOD
- Voir les cartes d'approche


LFBD - Bordeaux / Merignac

DERNIER METAR :
  • 202030Z AUTO 29021KT 5000 DZ BR OVC007 13/12 Q1019 TEMPO RA BECMG 27015G30KT

METARs EXPIRÉS :
  • 202000Z AUTO 28022KT 6000 DZ OVC007 13/12 Q1018 TEMPO 3000 RA BECMG 27015G30KT
  • 201930Z AUTO 29019KT 5000 DZ BR OVC007 13/12 Q1018 TEMPO RA BECMG 27015G30KT
  • 201900Z AUTO 29021KT 9000 -RA OVC008 13/12 Q1018 TEMPO 3000 RA BECMG 27015G30KT
  • 201830Z AUTO 29023KT 9999 -DZ OVC007 13/12 Q1017 TEMPO 3000 RA BECMG 27015G30KT
  • 201800Z AUTO 29021KT 5000 DZ BR OVC007 13/12 Q1017 TEMPO RA BECMG 27015G30KT

TAF TAF LFBD
Valide du 20 à 18h jusqu'au 22 à 00h UTC


201700Z 2018/2124 27015G30KT 9999 OVC012
TEMPO 2018/2107 3000 RA OVC005
FM210700 27015KT 9999 OVC010
TEMPO 2108/2112 27015G25KT 3000 RADZ OVC003
BECMG 2112/2114 BKN030
TEMPO 2114/2124 27015G25KT 3000 -RADZ BKN010 BKN030 TX14/2114Z TN11/2121Z
ATIS : +33 5 57 92 81 04
Pas de NOTAMs connus pour ce terrain.
4 SIGMETs publiés pour la FIR Bordeaux (LFBB) :
 
Onde orographique forte
LFBB SIGMET 8 VALID 202300/210300 LFPW
LFBB BORDEAUX FIR/UIR SEV MTW FCST WI N4245 E00230 - N4215 E00230 - N4230 E00030 - N4300 E00030 - N4245 E00230 SFC/FL350 STNR NC=
Turbulence forte
LFBB SIGMET 7 VALID 202100/202300 LFPW
LFBB BORDEAUX FIR/UIR SEV TURB FCST WI N4400 E00245 - N4215 E00230 - N4245 W00045 - N4300 W00115 - N4400 E00245 SFC/FL130 STNR NC=
Onde orographique forte
LFBB SIGMET 6 VALID 202000/202300 LFPW
LFBB BORDEAUX FIR/UIR SEV MTW FCST WI N4245 E00230 - N4215 E00230 - N4230 E00030 - N4300 E00030 - N4245 E00230 SFC/FL350 STNR NC=
Turbulence forte
LFBB SIGMET 5 VALID 201800/202100 LFPW
LFBB BORDEAUX FIR/UIR SEV TURB FCST WI N4400 E00245 - N4215 E00230 - N4300 W00145 - N4615 W00130 - N4615 W00045 - N4330 W00045 - N4400 E00245 SFC/FL100 STNR NC=



MET'MAP, la Météo Aéronautique d'un coup d'oeil ! - Copyright ORBIFLY Décembre 2007 - Disclaimer

ORBIFLY MET'MAP TEAM :

Programmation & Développement : Alexandra Zaïnal
Conception & Développement : Baudouin d'Aumeries
Co-Programmation & Développement : Marc-Olivier Méhu
Soutien technique & logistique : Manuel Goepfert

Contact : metmap@orbifly.com




SOURCES & CREDITS :

   NOAA